EWG66L LPPT-EDDS
Flight info
| Callsign | EWG66L |
|---|---|
| Flight time | 2h 22m |
| Altitude | 36000 |
| Route | IXIDA DCT PINOX DCT ZMR N976 DGO T429 TOPTU DCT TOU DCT GAI DCT MEN DCT NINUN DCT LATAM DCT ETREK DCT LTP DCT SOPLO DCT OMASI N871 DITON T163 ZUE T125 REUTL REUTL1W |
| Aircraft | A320/M-SDE3FGHIRWY/LB1 |
Departure
| Time | 2026-05-07 12:29 |
|---|---|
| Airport | Lisbon Humberto Delgado Airport (LPPT) |
Arrival
| Time | 2026-05-07 14:51 |
|---|---|
| Airport | Stuttgart Airport (EDDS) |
| Time | Latitude | Longitude | Altitude | Speed | Heading |
|---|---|---|---|---|---|
| 2026-05-07 11:43 | 38.76468 | -9.13684 | 348 ft | 0 kts | 168° |
| 2026-05-07 12:19 | 38.76479 | -9.13687 | 356 ft | 4 kts | 168° |
| 2026-05-07 12:19 | 38.76505 | -9.13694 | 354 ft | 4 kts | 164° |
| 2026-05-07 12:20 | 38.76524 | -9.13703 | 349 ft | 0 kts | 143° |
| 2026-05-07 12:20 | 38.76530 | -9.13709 | 352 ft | 0 kts | 132° |
| 2026-05-07 12:20 | 38.76536 | -9.13717 | 355 ft | 2 kts | 168° |
| 2026-05-07 12:21 | 38.76552 | -9.13714 | 358 ft | 1 kts | 230° |
| 2026-05-07 12:23 | 38.76552 | -9.13715 | 358 ft | 2 kts | 232° |
| 2026-05-07 12:24 | 38.76542 | -9.13739 | 351 ft | 6 kts | 245° |
| 2026-05-07 12:24 | 38.76523 | -9.13832 | 350 ft | 13 kts | 258° |
| 2026-05-07 12:24 | 38.76529 | -9.13916 | 347 ft | 9 kts | 325° |
| 2026-05-07 12:24 | 38.76569 | -9.13978 | 348 ft | 11 kts | 266° |
| 2026-05-07 12:25 | 38.76531 | -9.14055 | 357 ft | 9 kts | 227° |
| 2026-05-07 12:25 | 38.76499 | -9.14117 | 351 ft | 8 kts | 250° |
| 2026-05-07 12:25 | 38.76502 | -9.14195 | 346 ft | 11 kts | 288° |
| 2026-05-07 12:25 | 38.76527 | -9.14273 | 339 ft | 7 kts | 293° |
| 2026-05-07 12:26 | 38.76536 | -9.14301 | 336 ft | 0 kts | 293° |
| 2026-05-07 12:27 | 38.76538 | -9.14305 | 334 ft | 1 kts | 293° |
| 2026-05-07 12:27 | 38.76552 | -9.14346 | 333 ft | 9 kts | 294° |
| 2026-05-07 12:27 | 38.76581 | -9.14413 | 334 ft | 8 kts | 326° |
| 2026-05-07 12:28 | 38.76647 | -9.14388 | 336 ft | 21 kts | 22° |
| 2026-05-07 12:28 | 38.76998 | -9.14200 | 353 ft | 87 kts | 23° |
| 2026-05-07 12:28 | 38.77733 | -9.13807 | 366 ft | 140 kts | 23° |
| 2026-05-07 12:28 | 38.78751 | -9.13253 | 563 ft | 166 kts | 20° |
| 2026-05-07 12:29 | 38.79803 | -9.12660 | 1259 ft | 165 kts | 24° |
| 2026-05-07 12:29 | 38.80892 | -9.12057 | 1750 ft | 179 kts | 17° |
| 2026-05-07 12:29 | 38.82072 | -9.11356 | 2127 ft | 195 kts | 25° |
| 2026-05-07 12:29 | 38.83305 | -9.10426 | 2440 ft | 217 kts | 27° |
| 2026-05-07 12:30 | 38.84677 | -9.09366 | 2779 ft | 242 kts | 30° |
| 2026-05-07 12:30 | 38.86176 | -9.08196 | 3239 ft | 262 kts | 30° |
| 2026-05-07 12:30 | 38.87742 | -9.06972 | 3961 ft | 269 kts | 31° |
| 2026-05-07 12:30 | 38.89373 | -9.05681 | 4860 ft | 274 kts | 34° |
| 2026-05-07 12:31 | 38.90832 | -9.04080 | 5675 ft | 278 kts | 44° |
| 2026-05-07 12:31 | 38.92266 | -9.02399 | 6542 ft | 281 kts | 44° |
| 2026-05-07 12:31 | 38.93704 | -9.00719 | 7351 ft | 285 kts | 44° |
| 2026-05-07 12:31 | 38.95181 | -8.98996 | 8172 ft | 288 kts | 43° |
| 2026-05-07 12:32 | 38.96679 | -8.97252 | 8983 ft | 292 kts | 43° |
| 2026-05-07 12:32 | 38.98189 | -8.95491 | 9784 ft | 296 kts | 43° |
| 2026-05-07 12:32 | 38.99739 | -8.93682 | 10284 ft | 310 kts | 43° |
| 2026-05-07 12:32 | 39.01391 | -8.91751 | 10512 ft | 333 kts | 43° |
| 2026-05-07 12:33 | 39.05013 | -8.87513 | 11213 ft | 363 kts | 43° |
| 2026-05-07 12:33 | 39.06899 | -8.85307 | 11832 ft | 369 kts | 43° |
| 2026-05-07 12:33 | 39.08802 | -8.83079 | 12530 ft | 372 kts | 42° |
| 2026-05-07 12:34 | 39.10722 | -8.80828 | 13215 ft | 376 kts | 41° |
| 2026-05-07 12:34 | 39.12660 | -8.78557 | 13890 ft | 378 kts | 41° |
| 2026-05-07 12:34 | 39.14614 | -8.76269 | 14500 ft | 381 kts | 41° |
| 2026-05-07 12:34 | 39.16571 | -8.73956 | 15087 ft | 384 kts | 43° |
| 2026-05-07 12:35 | 39.18376 | -8.71393 | 15682 ft | 387 kts | 47° |
| 2026-05-07 12:35 | 39.20159 | -8.68776 | 16278 ft | 389 kts | 47° |
| 2026-05-07 12:35 | 39.21952 | -8.66148 | 16878 ft | 392 kts | 47° |
| 2026-05-07 12:35 | 39.23760 | -8.63501 | 17425 ft | 395 kts | 47° |
| 2026-05-07 12:36 | 39.25585 | -8.60826 | 17980 ft | 398 kts | 46° |
| 2026-05-07 12:36 | 39.27420 | -8.58134 | 18474 ft | 401 kts | 46° |
| 2026-05-07 12:36 | 39.29271 | -8.55416 | 18938 ft | 404 kts | 46° |
| 2026-05-07 12:36 | 39.31132 | -8.52682 | 19395 ft | 407 kts | 46° |
| 2026-05-07 12:37 | 39.33007 | -8.49924 | 19841 ft | 410 kts | 46° |
| 2026-05-07 12:37 | 39.34900 | -8.47137 | 20289 ft | 414 kts | 46° |
| 2026-05-07 12:37 | 39.36805 | -8.44326 | 20730 ft | 417 kts | 45° |
| 2026-05-07 12:37 | 39.38719 | -8.41497 | 21160 ft | 420 kts | 45° |
| 2026-05-07 12:38 | 39.40651 | -8.38640 | 21586 ft | 423 kts | 45° |
| 2026-05-07 12:38 | 39.42593 | -8.35767 | 22006 ft | 426 kts | 45° |
| 2026-05-07 12:38 | 39.44549 | -8.32874 | 22451 ft | 429 kts | 44° |
| 2026-05-07 12:38 | 39.46500 | -8.29995 | 22881 ft | 431 kts | 44° |
| 2026-05-07 12:39 | 39.48480 | -8.27068 | 23284 ft | 434 kts | 44° |
| 2026-05-07 12:39 | 39.50471 | -8.24119 | 23650 ft | 437 kts | 44° |
| 2026-05-07 12:39 | 39.52472 | -8.21145 | 24006 ft | 439 kts | 44° |
| 2026-05-07 12:39 | 39.54483 | -8.18148 | 24356 ft | 441 kts | 44° |
| 2026-05-07 12:40 | 39.56499 | -8.15144 | 24688 ft | 443 kts | 44° |
| 2026-05-07 12:40 | 39.58530 | -8.12113 | 24999 ft | 446 kts | 44° |
| 2026-05-07 12:40 | 39.60566 | -8.09071 | 25322 ft | 448 kts | 44° |
| 2026-05-07 12:40 | 39.62613 | -8.06009 | 25643 ft | 451 kts | 44° |
| 2026-05-07 12:41 | 39.64677 | -8.02926 | 25960 ft | 453 kts | 43° |
| 2026-05-07 12:41 | 39.66756 | -7.99843 | 26244 ft | 455 kts | 43° |
| 2026-05-07 12:41 | 39.68881 | -7.96791 | 26539 ft | 457 kts | 41° |
| 2026-05-07 12:41 | 39.71049 | -7.93752 | 26836 ft | 459 kts | 41° |
| 2026-05-07 12:42 | 39.73242 | -7.90716 | 27122 ft | 461 kts | 41° |
| 2026-05-07 12:42 | 39.75438 | -7.87671 | 27404 ft | 463 kts | 41° |
| 2026-05-07 12:42 | 39.77637 | -7.84600 | 27706 ft | 465 kts | 41° |
| 2026-05-07 12:42 | 39.79838 | -7.81496 | 27999 ft | 467 kts | 41° |
| 2026-05-07 12:43 | 39.82036 | -7.78375 | 28262 ft | 469 kts | 41° |
| 2026-05-07 12:43 | 39.84244 | -7.75225 | 28516 ft | 472 kts | 41° |
| 2026-05-07 12:43 | 39.86456 | -7.72066 | 28755 ft | 474 kts | 41° |
| 2026-05-07 12:43 | 39.88685 | -7.68886 | 29005 ft | 476 kts | 41° |
| 2026-05-07 12:44 | 39.90912 | -7.65707 | 29330 ft | 476 kts | 41° |
| 2026-05-07 12:44 | 39.93140 | -7.62529 | 29708 ft | 475 kts | 41° |
| 2026-05-07 12:44 | 39.95366 | -7.59357 | 30089 ft | 474 kts | 40° |
| 2026-05-07 12:44 | 39.97592 | -7.56191 | 30461 ft | 472 kts | 40° |
| 2026-05-07 12:45 | 39.99810 | -7.53032 | 30791 ft | 471 kts | 40° |
| 2026-05-07 12:45 | 40.02019 | -7.49880 | 31114 ft | 471 kts | 40° |
| 2026-05-07 12:45 | 40.04227 | -7.46724 | 31459 ft | 470 kts | 40° |
| 2026-05-07 12:45 | 40.06429 | -7.43567 | 31744 ft | 469 kts | 40° |
| 2026-05-07 12:46 | 40.08597 | -7.40455 | 32017 ft | 469 kts | 40° |
| 2026-05-07 12:46 | 40.10793 | -7.37300 | 32283 ft | 470 kts | 40° |
| 2026-05-07 12:46 | 40.12989 | -7.34139 | 32571 ft | 470 kts | 39° |
| 2026-05-07 12:46 | 40.15189 | -7.30966 | 32844 ft | 471 kts | 40° |
| 2026-05-07 12:47 | 40.17388 | -7.27799 | 33114 ft | 471 kts | 39° |
| 2026-05-07 12:47 | 40.19587 | -7.24631 | 33381 ft | 471 kts | 39° |
| 2026-05-07 12:47 | 40.21793 | -7.21452 | 33706 ft | 471 kts | 39° |
| 2026-05-07 12:47 | 40.23992 | -7.18276 | 34013 ft | 470 kts | 39° |
| 2026-05-07 12:48 | 40.26180 | -7.15108 | 34284 ft | 469 kts | 40° |
| 2026-05-07 12:48 | 40.28281 | -7.11826 | 34545 ft | 475 kts | 48° |
| 2026-05-07 12:48 | 40.30200 | -7.08294 | 34787 ft | 474 kts | 47° |
| 2026-05-07 12:48 | 40.32196 | -7.04867 | 35005 ft | 473 kts | 45° |
| 2026-05-07 12:49 | 40.34262 | -7.01508 | 35202 ft | 472 kts | 44° |
| 2026-05-07 12:49 | 40.36353 | -6.98192 | 35399 ft | 472 kts | 44° |
| 2026-05-07 12:49 | 40.38456 | -6.94868 | 35601 ft | 473 kts | 44° |
| 2026-05-07 12:49 | 40.40541 | -6.91532 | 35794 ft | 474 kts | 45° |
| 2026-05-07 12:50 | 40.44674 | -6.84754 | 35879 ft | 477 kts | 46° |
| 2026-05-07 12:50 | 40.48753 | -6.77919 | 35886 ft | 474 kts | 46° |
| 2026-05-07 12:51 | 40.52816 | -6.71109 | 35872 ft | 473 kts | 46° |
| 2026-05-07 12:51 | 40.56889 | -6.64310 | 35885 ft | 473 kts | 46° |
| 2026-05-07 12:52 | 40.60970 | -6.57517 | 35884 ft | 473 kts | 46° |
| 2026-05-07 12:52 | 40.65022 | -6.50761 | 35890 ft | 474 kts | 46° |
| 2026-05-07 12:53 | 40.69085 | -6.43923 | 35906 ft | 474 kts | 47° |
| 2026-05-07 12:53 | 40.73150 | -6.37084 | 35914 ft | 473 kts | 47° |
| 2026-05-07 12:54 | 40.77227 | -6.30251 | 35912 ft | 473 kts | 47° |
| 2026-05-07 12:54 | 40.81282 | -6.23417 | 35914 ft | 473 kts | 47° |
| 2026-05-07 12:55 | 40.85321 | -6.16584 | 35907 ft | 472 kts | 47° |
| 2026-05-07 12:55 | 40.89373 | -6.09724 | 35907 ft | 472 kts | 47° |
| 2026-05-07 12:56 | 40.92720 | -6.04040 | 35915 ft | 472 kts | 48° |
| 2026-05-07 12:56 | 40.97402 | -5.96055 | 35911 ft | 472 kts | 48° |
| 2026-05-07 12:57 | 41.01422 | -5.89184 | 35920 ft | 472 kts | 49° |
| 2026-05-07 12:57 | 41.05437 | -5.82315 | 35913 ft | 471 kts | 49° |
| 2026-05-07 12:58 | 41.08798 | -5.76558 | 35911 ft | 471 kts | 49° |
| 2026-05-07 12:58 | 41.12798 | -5.69691 | 35917 ft | 471 kts | 49° |
| 2026-05-07 12:59 | 41.16772 | -5.62850 | 35909 ft | 471 kts | 50° |
| 2026-05-07 12:59 | 41.20758 | -5.55957 | 35918 ft | 470 kts | 50° |
| 2026-05-07 13:00 | 41.24746 | -5.49069 | 35922 ft | 470 kts | 50° |
| 2026-05-07 13:00 | 41.28731 | -5.42171 | 35912 ft | 470 kts | 50° |
| 2026-05-07 13:01 | 41.32696 | -5.35280 | 35909 ft | 469 kts | 50° |
| 2026-05-07 13:01 | 41.36665 | -5.28379 | 35910 ft | 469 kts | 51° |
| 2026-05-07 13:02 | 41.40631 | -5.21466 | 35912 ft | 470 kts | 51° |
| 2026-05-07 13:02 | 41.44594 | -5.14528 | 35911 ft | 470 kts | 51° |
| 2026-05-07 13:03 | 41.48554 | -5.07595 | 35926 ft | 470 kts | 51° |
| 2026-05-07 13:03 | 41.52512 | -5.00655 | 35928 ft | 470 kts | 51° |
| 2026-05-07 13:04 | 41.56432 | -4.93738 | 35929 ft | 470 kts | 52° |
| 2026-05-07 13:04 | 41.60372 | -4.86759 | 35913 ft | 471 kts | 52° |
| 2026-05-07 13:05 | 41.64324 | -4.79774 | 35914 ft | 471 kts | 52° |
| 2026-05-07 13:05 | 41.68272 | -4.72790 | 35929 ft | 471 kts | 52° |
| 2026-05-07 13:06 | 41.72223 | -4.65767 | 35906 ft | 472 kts | 52° |
| 2026-05-07 13:06 | 41.76170 | -4.58741 | 35903 ft | 472 kts | 52° |
| 2026-05-07 13:07 | 41.80107 | -4.51707 | 35895 ft | 472 kts | 53° |
| 2026-05-07 13:07 | 41.84053 | -4.44649 | 35893 ft | 473 kts | 53° |
| 2026-05-07 13:08 | 41.87998 | -4.37577 | 35892 ft | 474 kts | 53° |
| 2026-05-07 13:08 | 41.91939 | -4.30487 | 35901 ft | 474 kts | 53° |
| 2026-05-07 13:09 | 41.95855 | -4.23431 | 35900 ft | 474 kts | 53° |
| 2026-05-07 13:09 | 41.99791 | -4.16313 | 35901 ft | 474 kts | 53° |
| 2026-05-07 13:10 | 42.03458 | -4.08954 | 35899 ft | 474 kts | 64° |
| 2026-05-07 13:10 | 42.06283 | -4.00950 | 35898 ft | 473 kts | 65° |
| 2026-05-07 13:11 | 42.09116 | -3.92945 | 35902 ft | 474 kts | 65° |
| 2026-05-07 13:11 | 42.11948 | -3.84928 | 35903 ft | 474 kts | 65° |
| 2026-05-07 13:12 | 42.14767 | -3.76887 | 35902 ft | 474 kts | 66° |
| 2026-05-07 13:12 | 42.17574 | -3.68839 | 35900 ft | 474 kts | 66° |
| 2026-05-07 13:13 | 42.20376 | -3.60789 | 35911 ft | 475 kts | 66° |
| 2026-05-07 13:13 | 42.23179 | -3.52712 | 35914 ft | 475 kts | 66° |
| 2026-05-07 13:14 | 42.25956 | -3.44697 | 35915 ft | 475 kts | 66° |
| 2026-05-07 13:14 | 42.28743 | -3.36613 | 35905 ft | 475 kts | 66° |
| 2026-05-07 13:15 | 42.31534 | -3.28525 | 35908 ft | 475 kts | 66° |
| 2026-05-07 13:15 | 42.34323 | -3.20431 | 35913 ft | 475 kts | 67° |
| 2026-05-07 13:16 | 42.37101 | -3.12323 | 35920 ft | 475 kts | 67° |
| 2026-05-07 13:16 | 42.39866 | -3.04208 | 35913 ft | 476 kts | 67° |
| 2026-05-07 13:17 | 42.42635 | -2.96069 | 35915 ft | 476 kts | 67° |
| 2026-05-07 13:17 | 42.44924 | -2.87711 | 35910 ft | 471 kts | 81° |
| 2026-05-07 13:18 | 42.45468 | -2.78949 | 35914 ft | 466 kts | 92° |
| 2026-05-07 13:18 | 42.45587 | -2.70160 | 35924 ft | 467 kts | 92° |
| 2026-05-07 13:19 | 42.45717 | -2.61362 | 35929 ft | 467 kts | 92° |
| 2026-05-07 13:19 | 42.45844 | -2.52563 | 35950 ft | 468 kts | 92° |
| 2026-05-07 13:20 | 42.45953 | -2.43786 | 35978 ft | 468 kts | 92° |
| 2026-05-07 13:20 | 42.46053 | -2.34973 | 35979 ft | 469 kts | 90° |
| 2026-05-07 13:21 | 42.47136 | -2.26216 | 35961 ft | 474 kts | 80° |
| 2026-05-07 13:21 | 42.48598 | -2.17514 | 35961 ft | 474 kts | 80° |
| 2026-05-07 13:22 | 42.50053 | -2.08801 | 35939 ft | 474 kts | 80° |
| 2026-05-07 13:22 | 42.51483 | -2.00083 | 35938 ft | 474 kts | 81° |
| 2026-05-07 13:23 | 42.52913 | -1.91337 | 35934 ft | 475 kts | 80° |
| 2026-05-07 13:23 | 42.54344 | -1.82609 | 35917 ft | 475 kts | 81° |
| 2026-05-07 13:24 | 42.55771 | -1.73847 | 35926 ft | 475 kts | 81° |
| 2026-05-07 13:24 | 42.57190 | -1.65080 | 35927 ft | 476 kts | 81° |
| 2026-05-07 13:25 | 42.58588 | -1.56366 | 35933 ft | 476 kts | 81° |
| 2026-05-07 13:25 | 42.59988 | -1.47583 | 35915 ft | 476 kts | 81° |
| 2026-05-07 13:26 | 42.61390 | -1.38798 | 35938 ft | 476 kts | 81° |
| 2026-05-07 13:26 | 42.62779 | -1.30024 | 35940 ft | 475 kts | 81° |
| 2026-05-07 13:27 | 42.64154 | -1.21251 | 35951 ft | 475 kts | 81° |
| 2026-05-07 13:27 | 42.65534 | -1.12483 | 35932 ft | 474 kts | 81° |
| 2026-05-07 13:28 | 42.66901 | -1.03715 | 35943 ft | 474 kts | 81° |
| 2026-05-07 13:28 | 42.68257 | -0.94939 | 35946 ft | 475 kts | 81° |
| 2026-05-07 13:29 | 42.69611 | -0.86159 | 35947 ft | 474 kts | 81° |
| 2026-05-07 13:29 | 42.70964 | -0.77369 | 35945 ft | 474 kts | 81° |
| 2026-05-07 13:30 | 42.72306 | -0.68584 | 35940 ft | 474 kts | 81° |
| 2026-05-07 13:30 | 42.73639 | -0.59790 | 35949 ft | 475 kts | 81° |
| 2026-05-07 13:31 | 42.74965 | -0.50998 | 35954 ft | 475 kts | 81° |
| 2026-05-07 13:31 | 42.76291 | -0.42178 | 35959 ft | 475 kts | 81° |
| 2026-05-07 13:32 | 42.77607 | -0.33374 | 35962 ft | 475 kts | 81° |
| 2026-05-07 13:32 | 42.78972 | -0.24552 | 35962 ft | 477 kts | 76° |
| 2026-05-07 13:33 | 42.81694 | -0.16308 | 35966 ft | 482 kts | 58° |
| 2026-05-07 13:33 | 42.85826 | -0.09173 | 35965 ft | 483 kts | 51° |
| 2026-05-07 13:34 | 42.92221 | 0.01490 | 35945 ft | 484 kts | 52° |
| 2026-05-07 13:35 | 42.96472 | 0.08616 | 35950 ft | 484 kts | 52° |
| 2026-05-07 13:35 | 43.00728 | 0.15750 | 35960 ft | 484 kts | 51° |
| 2026-05-07 13:36 | 43.04988 | 0.22890 | 35974 ft | 484 kts | 52° |
| 2026-05-07 13:36 | 43.09235 | 0.30025 | 35990 ft | 484 kts | 52° |
| 2026-05-07 13:37 | 43.13472 | 0.37183 | 35977 ft | 483 kts | 52° |
| 2026-05-07 13:37 | 43.17694 | 0.44357 | 35963 ft | 484 kts | 52° |
| 2026-05-07 13:38 | 43.21915 | 0.51533 | 35966 ft | 484 kts | 52° |
| 2026-05-07 13:38 | 43.26146 | 0.58723 | 35990 ft | 484 kts | 52° |
| 2026-05-07 13:39 | 43.30375 | 0.65913 | 35998 ft | 484 kts | 52° |
| 2026-05-07 13:39 | 43.34594 | 0.73116 | 35997 ft | 483 kts | 52° |
| 2026-05-07 13:40 | 43.38800 | 0.80301 | 35971 ft | 483 kts | 52° |
| 2026-05-07 13:40 | 43.43002 | 0.87511 | 35987 ft | 483 kts | 52° |
| 2026-05-07 13:41 | 43.46491 | 0.93514 | 35991 ft | 482 kts | 52° |
| 2026-05-07 13:41 | 43.51350 | 1.01897 | 35992 ft | 481 kts | 52° |
| 2026-05-07 13:42 | 43.54849 | 1.07941 | 35986 ft | 481 kts | 52° |
| 2026-05-07 13:42 | 43.59010 | 1.15149 | 35972 ft | 481 kts | 52° |
| 2026-05-07 13:43 | 43.63171 | 1.22381 | 35993 ft | 481 kts | 52° |
| 2026-05-07 13:43 | 43.67296 | 1.29579 | 35997 ft | 481 kts | 52° |
| 2026-05-07 13:44 | 43.71378 | 1.36911 | 36002 ft | 481 kts | 54° |
| 2026-05-07 13:44 | 43.75321 | 1.44375 | 35997 ft | 481 kts | 55° |
| 2026-05-07 13:45 | 43.79247 | 1.51872 | 35996 ft | 481 kts | 54° |
| 2026-05-07 13:45 | 43.83204 | 1.59349 | 35995 ft | 481 kts | 54° |
| 2026-05-07 13:46 | 43.87180 | 1.66821 | 35992 ft | 482 kts | 54° |
| 2026-05-07 13:46 | 43.91150 | 1.74307 | 35995 ft | 482 kts | 54° |
| 2026-05-07 13:47 | 43.95108 | 1.81812 | 35996 ft | 482 kts | 54° |
| 2026-05-07 13:47 | 43.98985 | 1.89388 | 35999 ft | 482 kts | 56° |
| 2026-05-07 13:48 | 44.02776 | 1.97080 | 35999 ft | 482 kts | 56° |
| 2026-05-07 13:48 | 44.06557 | 2.04776 | 35999 ft | 482 kts | 56° |
| 2026-05-07 13:49 | 44.10361 | 2.12454 | 36002 ft | 482 kts | 56° |
| 2026-05-07 13:49 | 44.14166 | 2.20122 | 36000 ft | 482 kts | 56° |
| 2026-05-07 13:50 | 44.17965 | 2.27812 | 36005 ft | 482 kts | 56° |
| 2026-05-07 13:50 | 44.21734 | 2.35469 | 36004 ft | 482 kts | 56° |
| 2026-05-07 13:51 | 44.25539 | 2.43235 | 36004 ft | 482 kts | 56° |
| 2026-05-07 13:51 | 44.29287 | 2.50905 | 35999 ft | 482 kts | 56° |
| 2026-05-07 13:52 | 44.33067 | 2.58632 | 35994 ft | 482 kts | 56° |
| 2026-05-07 13:52 | 44.36834 | 2.66376 | 35993 ft | 482 kts | 56° |
| 2026-05-07 13:53 | 44.40591 | 2.74136 | 35991 ft | 482 kts | 56° |
| 2026-05-07 13:53 | 44.44349 | 2.81913 | 35982 ft | 482 kts | 56° |
| 2026-05-07 13:54 | 44.48113 | 2.89695 | 35981 ft | 483 kts | 56° |
| 2026-05-07 13:54 | 44.51868 | 2.97492 | 35975 ft | 483 kts | 56° |
| 2026-05-07 13:55 | 44.55617 | 3.05305 | 35968 ft | 483 kts | 56° |
| 2026-05-07 13:55 | 44.59362 | 3.13132 | 35972 ft | 483 kts | 56° |
| 2026-05-07 13:56 | 44.62968 | 3.21034 | 35970 ft | 484 kts | 60° |
| 2026-05-07 13:56 | 44.66274 | 3.29331 | 35970 ft | 484 kts | 62° |
| 2026-05-07 13:57 | 44.69439 | 3.37602 | 35967 ft | 484 kts | 62° |
| 2026-05-07 13:57 | 44.72695 | 3.45893 | 35971 ft | 484 kts | 61° |
| 2026-05-07 13:58 | 44.76002 | 3.54152 | 35968 ft | 484 kts | 61° |
| 2026-05-07 13:58 | 44.79300 | 3.62408 | 35974 ft | 484 kts | 61° |
| 2026-05-07 13:59 | 44.82584 | 3.70697 | 35979 ft | 484 kts | 61° |
| 2026-05-07 13:59 | 44.85858 | 3.79000 | 35979 ft | 485 kts | 61° |
| 2026-05-07 14:00 | 44.89123 | 3.87319 | 35964 ft | 485 kts | 61° |
| 2026-05-07 14:00 | 44.92386 | 3.95642 | 35968 ft | 486 kts | 61° |
| 2026-05-07 14:01 | 44.95661 | 4.04001 | 35977 ft | 486 kts | 61° |
| 2026-05-07 14:01 | 44.98919 | 4.12355 | 35979 ft | 486 kts | 61° |
| 2026-05-07 14:02 | 45.02170 | 4.20746 | 35987 ft | 486 kts | 62° |
| 2026-05-07 14:02 | 45.05421 | 4.29137 | 35969 ft | 487 kts | 61° |
| 2026-05-07 14:03 | 45.08668 | 4.37535 | 35978 ft | 487 kts | 61° |
| 2026-05-07 14:03 | 45.11918 | 4.45962 | 35986 ft | 487 kts | 61° |
| 2026-05-07 14:04 | 45.15155 | 4.54393 | 35991 ft | 488 kts | 61° |
| 2026-05-07 14:04 | 45.18395 | 4.62858 | 35978 ft | 488 kts | 61° |
| 2026-05-07 14:05 | 45.21630 | 4.71326 | 35982 ft | 489 kts | 61° |
| 2026-05-07 14:05 | 45.24859 | 4.79816 | 35989 ft | 489 kts | 61° |
| 2026-05-07 14:06 | 45.28061 | 4.88254 | 36026 ft | 489 kts | 61° |
| 2026-05-07 14:06 | 45.31278 | 4.96765 | 36009 ft | 489 kts | 61° |
| 2026-05-07 14:07 | 45.34483 | 5.05282 | 35991 ft | 489 kts | 61° |
| 2026-05-07 14:07 | 45.37791 | 5.13792 | 35991 ft | 488 kts | 53° |
| 2026-05-07 14:08 | 45.42334 | 5.20799 | 35993 ft | 485 kts | 43° |
| 2026-05-07 14:08 | 45.47103 | 5.27637 | 36010 ft | 486 kts | 43° |
| 2026-05-07 14:09 | 45.51868 | 5.34482 | 36008 ft | 486 kts | 43° |
| 2026-05-07 14:09 | 45.56612 | 5.41370 | 36007 ft | 487 kts | 44° |
| 2026-05-07 14:10 | 45.61281 | 5.48366 | 35996 ft | 487 kts | 44° |
| 2026-05-07 14:10 | 45.65931 | 5.55428 | 36008 ft | 487 kts | 44° |
| 2026-05-07 14:11 | 45.70592 | 5.62469 | 36006 ft | 487 kts | 44° |
| 2026-05-07 14:11 | 45.75261 | 5.69499 | 36003 ft | 487 kts | 44° |
| 2026-05-07 14:12 | 45.79899 | 5.76503 | 36003 ft | 487 kts | 44° |
| 2026-05-07 14:12 | 45.84561 | 5.83572 | 36016 ft | 487 kts | 44° |
| 2026-05-07 14:13 | 45.89214 | 5.90648 | 36011 ft | 487 kts | 44° |
| 2026-05-07 14:13 | 45.93858 | 5.97737 | 36006 ft | 487 kts | 44° |
| 2026-05-07 14:14 | 45.98464 | 6.04869 | 36003 ft | 487 kts | 45° |
| 2026-05-07 14:14 | 46.03008 | 6.11997 | 36024 ft | 486 kts | 45° |
| 2026-05-07 14:15 | 46.07585 | 6.19175 | 36014 ft | 485 kts | 45° |
| 2026-05-07 14:15 | 46.12458 | 6.25836 | 36012 ft | 483 kts | 39° |
| 2026-05-07 14:16 | 46.17443 | 6.32353 | 36012 ft | 483 kts | 39° |
| 2026-05-07 14:16 | 46.22414 | 6.38900 | 36020 ft | 483 kts | 39° |
| 2026-05-07 14:17 | 46.27380 | 6.45427 | 36010 ft | 482 kts | 39° |
| 2026-05-07 14:17 | 46.32319 | 6.51929 | 36010 ft | 482 kts | 39° |
| 2026-05-07 14:18 | 46.37277 | 6.58485 | 36003 ft | 482 kts | 40° |
| 2026-05-07 14:18 | 46.42216 | 6.65049 | 36023 ft | 481 kts | 40° |
| 2026-05-07 14:19 | 46.46774 | 6.72176 | 36016 ft | 483 kts | 49° |
| 2026-05-07 14:19 | 46.51005 | 6.79759 | 36025 ft | 483 kts | 49° |
| 2026-05-07 14:20 | 46.55201 | 6.87316 | 36006 ft | 483 kts | 49° |
| 2026-05-07 14:20 | 46.59443 | 6.94968 | 36006 ft | 483 kts | 49° |
| 2026-05-07 14:21 | 46.63643 | 7.02520 | 36009 ft | 484 kts | 49° |
| 2026-05-07 14:21 | 46.67877 | 7.10134 | 36010 ft | 484 kts | 49° |
| 2026-05-07 14:22 | 46.72098 | 7.17774 | 36017 ft | 484 kts | 49° |
| 2026-05-07 14:22 | 46.76313 | 7.25437 | 36030 ft | 484 kts | 49° |
| 2026-05-07 14:23 | 46.80529 | 7.33113 | 36016 ft | 484 kts | 49° |
| 2026-05-07 14:23 | 46.84725 | 7.40776 | 36001 ft | 483 kts | 49° |
| 2026-05-07 14:24 | 46.88920 | 7.48474 | 36006 ft | 484 kts | 49° |
| 2026-05-07 14:24 | 46.93108 | 7.56186 | 36049 ft | 484 kts | 49° |
| 2026-05-07 14:25 | 46.97288 | 7.63899 | 36046 ft | 484 kts | 49° |
| 2026-05-07 14:25 | 47.01462 | 7.71625 | 36033 ft | 483 kts | 49° |
| 2026-05-07 14:26 | 47.05603 | 7.79305 | 36031 ft | 483 kts | 49° |
| 2026-05-07 14:26 | 47.09760 | 7.87030 | 36033 ft | 483 kts | 49° |
| 2026-05-07 14:27 | 47.13861 | 7.94839 | 36038 ft | 483 kts | 55° |
| 2026-05-07 14:27 | 47.17444 | 8.03189 | 36037 ft | 483 kts | 56° |
| 2026-05-07 14:28 | 47.21018 | 8.11558 | 36035 ft | 483 kts | 56° |
| 2026-05-07 14:28 | 47.23994 | 8.18560 | 36028 ft | 482 kts | 56° |
| 2026-05-07 14:29 | 47.27519 | 8.26891 | 36026 ft | 482 kts | 56° |
| 2026-05-07 14:29 | 47.31284 | 8.35028 | 35532 ft | 478 kts | 44° |
| 2026-05-07 14:29 | 47.33613 | 8.38508 | 35099 ft | 477 kts | 47° |
| 2026-05-07 14:30 | 47.35602 | 8.42420 | 34670 ft | 478 kts | 53° |
| 2026-05-07 14:30 | 47.37514 | 8.46435 | 34254 ft | 477 kts | 52° |
| 2026-05-07 14:30 | 47.39477 | 8.50388 | 33801 ft | 477 kts | 51° |
| 2026-05-07 14:30 | 47.41474 | 8.54285 | 33313 ft | 476 kts | 50° |
| 2026-05-07 14:31 | 47.43484 | 8.58156 | 32822 ft | 475 kts | 50° |
| 2026-05-07 14:31 | 47.45488 | 8.62023 | 32347 ft | 474 kts | 51° |
| 2026-05-07 14:31 | 47.47485 | 8.65911 | 31870 ft | 474 kts | 51° |
| 2026-05-07 14:31 | 47.49465 | 8.69802 | 31418 ft | 472 kts | 52° |
| 2026-05-07 14:32 | 47.51426 | 8.73695 | 30963 ft | 471 kts | 52° |
| 2026-05-07 14:32 | 47.53378 | 8.77603 | 30517 ft | 470 kts | 52° |
| 2026-05-07 14:32 | 47.55287 | 8.81439 | 30077 ft | 469 kts | 52° |
| 2026-05-07 14:32 | 47.57219 | 8.85319 | 29549 ft | 468 kts | 52° |
| 2026-05-07 14:33 | 47.59155 | 8.89204 | 29013 ft | 468 kts | 52° |
| 2026-05-07 14:33 | 47.61089 | 8.93092 | 28356 ft | 468 kts | 52° |
| 2026-05-07 14:33 | 47.63021 | 8.96981 | 27542 ft | 469 kts | 52° |
| 2026-05-07 14:33 | 47.64958 | 9.00883 | 26739 ft | 471 kts | 52° |
| 2026-05-07 14:34 | 47.66905 | 9.04813 | 25983 ft | 472 kts | 53° |
| 2026-05-07 14:34 | 47.68852 | 9.08750 | 25225 ft | 474 kts | 53° |
| 2026-05-07 14:34 | 47.70802 | 9.12701 | 24447 ft | 476 kts | 53° |
| 2026-05-07 14:34 | 47.72761 | 9.16670 | 23680 ft | 478 kts | 53° |
| 2026-05-07 14:35 | 47.74732 | 9.20665 | 22808 ft | 477 kts | 52° |
| 2026-05-07 14:35 | 47.76899 | 9.24335 | 21934 ft | 470 kts | 41° |
| 2026-05-07 14:35 | 47.79487 | 9.27238 | 21086 ft | 462 kts | 30° |
| 2026-05-07 14:35 | 47.82362 | 9.29271 | 20295 ft | 455 kts | 18° |
| 2026-05-07 14:36 | 47.85406 | 9.30390 | 19558 ft | 448 kts | 6° |
| 2026-05-07 14:36 | 47.88486 | 9.30716 | 18828 ft | 442 kts | 1° |
| 2026-05-07 14:36 | 47.91550 | 9.30938 | 18084 ft | 438 kts | 1° |
| 2026-05-07 14:36 | 47.94584 | 9.31163 | 17279 ft | 435 kts | 1° |
| 2026-05-07 14:37 | 47.97598 | 9.31390 | 16509 ft | 431 kts | 1° |
| 2026-05-07 14:37 | 48.03507 | 9.31840 | 14997 ft | 425 kts | 1° |
| 2026-05-07 14:37 | 48.06444 | 9.32069 | 14276 ft | 422 kts | 1° |
| 2026-05-07 14:38 | 48.09367 | 9.32299 | 13523 ft | 419 kts | 1° |
| 2026-05-07 14:38 | 48.12266 | 9.32524 | 12769 ft | 415 kts | 0° |
| 2026-05-07 14:38 | 48.15113 | 9.32740 | 12244 ft | 405 kts | 0° |
| 2026-05-07 14:38 | 48.17902 | 9.32977 | 11728 ft | 397 kts | 2° |
| 2026-05-07 14:39 | 48.20624 | 9.33331 | 11223 ft | 389 kts | 4° |
| 2026-05-07 14:39 | 48.23293 | 9.33772 | 10750 ft | 381 kts | 5° |
| 2026-05-07 14:39 | 48.25905 | 9.34247 | 10381 ft | 376 kts | 5° |
| 2026-05-07 14:39 | 48.28478 | 9.34719 | 10115 ft | 365 kts | 4° |
| 2026-05-07 14:40 | 48.30956 | 9.35159 | 9869 ft | 354 kts | 4° |
| 2026-05-07 14:40 | 48.33388 | 9.35569 | 9598 ft | 350 kts | 4° |
| 2026-05-07 14:40 | 48.35758 | 9.36003 | 9337 ft | 345 kts | 8° |
| 2026-05-07 14:40 | 48.38076 | 9.36955 | 9070 ft | 338 kts | 19° |
| 2026-05-07 14:41 | 48.40182 | 9.38343 | 8809 ft | 331 kts | 22° |
| 2026-05-07 14:41 | 48.42276 | 9.39768 | 8548 ft | 319 kts | 22° |
| 2026-05-07 14:41 | 48.44242 | 9.41105 | 8286 ft | 309 kts | 22° |
| 2026-05-07 14:41 | 48.46166 | 9.42412 | 8039 ft | 299 kts | 22° |
| 2026-05-07 14:42 | 48.48042 | 9.43686 | 7775 ft | 293 kts | 22° |
| 2026-05-07 14:42 | 48.49883 | 9.44935 | 7518 ft | 287 kts | 22° |
| 2026-05-07 14:42 | 48.51691 | 9.46162 | 7270 ft | 283 kts | 22° |
| 2026-05-07 14:42 | 48.53465 | 9.47371 | 7024 ft | 277 kts | 22° |
| 2026-05-07 14:43 | 48.55196 | 9.48552 | 6778 ft | 271 kts | 22° |
| 2026-05-07 14:43 | 48.56899 | 9.49714 | 6529 ft | 265 kts | 22° |
| 2026-05-07 14:43 | 48.58563 | 9.50848 | 6281 ft | 260 kts | 22° |
| 2026-05-07 14:43 | 48.60195 | 9.51959 | 6018 ft | 255 kts | 22° |
| 2026-05-07 14:44 | 48.61798 | 9.53051 | 5753 ft | 250 kts | 21° |
| 2026-05-07 14:44 | 48.63365 | 9.54124 | 5496 ft | 245 kts | 22° |
| 2026-05-07 14:44 | 48.64905 | 9.55181 | 5243 ft | 240 kts | 22° |
| 2026-05-07 14:44 | 48.66410 | 9.56210 | 5028 ft | 235 kts | 22° |
| 2026-05-07 14:45 | 48.67935 | 9.56989 | 4829 ft | 229 kts | 9° |
| 2026-05-07 14:45 | 48.69500 | 9.57213 | 4606 ft | 223 kts | 357° |
| 2026-05-07 14:45 | 48.71013 | 9.56915 | 4363 ft | 218 kts | 343° |
| 2026-05-07 14:45 | 48.72455 | 9.56271 | 4162 ft | 213 kts | 342° |
| 2026-05-07 14:46 | 48.73813 | 9.55508 | 4062 ft | 202 kts | 323° |
| 2026-05-07 14:46 | 48.74614 | 9.53896 | 4005 ft | 193 kts | 284° |
| 2026-05-07 14:46 | 48.74578 | 9.51914 | 4012 ft | 192 kts | 257° |
| 2026-05-07 14:46 | 48.74207 | 9.49961 | 4019 ft | 193 kts | 255° |
| 2026-05-07 14:47 | 48.73837 | 9.48005 | 4008 ft | 194 kts | 256° |
| 2026-05-07 14:47 | 48.73468 | 9.46042 | 4006 ft | 195 kts | 257° |
| 2026-05-07 14:47 | 48.73107 | 9.44099 | 3880 ft | 186 kts | 256° |
| 2026-05-07 14:47 | 48.72763 | 9.42251 | 3623 ft | 183 kts | 257° |
| 2026-05-07 14:48 | 48.72414 | 9.40379 | 3407 ft | 183 kts | 257° |
| 2026-05-07 14:48 | 48.72063 | 9.38521 | 3160 ft | 184 kts | 257° |
| 2026-05-07 14:48 | 48.71712 | 9.36688 | 2915 ft | 181 kts | 256° |
| 2026-05-07 14:48 | 48.71368 | 9.34901 | 2668 ft | 170 kts | 257° |
| 2026-05-07 14:49 | 48.71066 | 9.33233 | 2447 ft | 160 kts | 257° |
| 2026-05-07 14:49 | 48.70772 | 9.31661 | 2224 ft | 151 kts | 259° |
| 2026-05-07 14:49 | 48.70494 | 9.30166 | 2003 ft | 146 kts | 258° |
| 2026-05-07 14:49 | 48.70210 | 9.28668 | 1824 ft | 148 kts | 257° |
| 2026-05-07 14:50 | 48.69928 | 9.27175 | 1640 ft | 148 kts | 257° |
| 2026-05-07 14:50 | 48.69644 | 9.25678 | 1433 ft | 148 kts | 257° |
| 2026-05-07 14:50 | 48.69363 | 9.24185 | 1221 ft | 147 kts | 258° |
| 2026-05-07 14:50 | 48.69119 | 9.22882 | 1219 ft | 105 kts | 253° |
| 2026-05-07 14:51 | 48.68965 | 9.22070 | 1241 ft | 48 kts | 254° |
| 2026-05-07 14:51 | 48.68947 | 9.21731 | 1251 ft | 29 kts | 278° |
| 2026-05-07 14:51 | 48.68974 | 9.21545 | 1256 ft | 6 kts | 284° |
| 2026-05-07 14:51 | 48.68982 | 9.21498 | 1255 ft | 3 kts | 284° |
| 2026-05-07 14:52 | 48.68983 | 9.21490 | 1255 ft | 0 kts | 284° |
| 2026-05-07 14:52 | 48.68984 | 9.21488 | 1255 ft | 2 kts | 284° |
| 2026-05-07 14:52 | 48.68995 | 9.21421 | 1260 ft | 8 kts | 285° |
| 2026-05-07 14:52 | 48.68999 | 9.21342 | 1260 ft | 9 kts | 264° |
| 2026-05-07 14:53 | 48.68980 | 9.21233 | 1263 ft | 13 kts | 253° |
| 2026-05-07 14:53 | 48.68952 | 9.21084 | 1266 ft | 17 kts | 255° |
| 2026-05-07 14:53 | 48.68917 | 9.20899 | 1274 ft | 20 kts | 253° |
| 2026-05-07 14:53 | 48.68876 | 9.20681 | 1275 ft | 23 kts | 254° |
| 2026-05-07 14:54 | 48.68827 | 9.20436 | 1281 ft | 26 kts | 254° |
| 2026-05-07 14:54 | 48.68778 | 9.20173 | 1287 ft | 25 kts | 254° |
| 2026-05-07 14:54 | 48.68790 | 9.19955 | 1295 ft | 20 kts | 309° |
| 2026-05-07 14:54 | 48.68885 | 9.19854 | 1303 ft | 14 kts | 295° |
| 2026-05-07 14:55 | 48.68869 | 9.19710 | 1307 ft | 15 kts | 255° |
| 2026-05-07 14:55 | 48.68839 | 9.19556 | 1310 ft | 16 kts | 253° |
| 2026-05-07 14:55 | 48.68810 | 9.19401 | 1313 ft | 15 kts | 254° |
| 2026-05-07 14:55 | 48.68830 | 9.19304 | 1315 ft | 11 kts | 346° |
| 2026-05-07 14:56 | 48.68864 | 9.19291 | 1315 ft | 1 kts | 345° |
| 2026-05-07 14:56 | 48.68870 | 9.19288 | 1315 ft | 0 kts | 344° |